CYZH

Slave Lake Airport

Slave Lake, Alberta, Canada
TAF CYZH 221238Z 2213/2301 VRB03KT P6SM FEW060 SCT120 OVC200 FM221600 26005KT P6SM -SN BKN060 OVC120 TEMPO 2216/2301 21/2SM -SHSN SCT020 OVC040 BECMG 2221/2223 28012G22KT RMK FCST BASED ON AUTO OBS. NXT FCST BY 221900Z
Issued Valid From Valid To
Jan-22 @ 12:38 UTC
(4 hours ago)
Jan-22 @ 13:00 UTC
(4 hours ago)
Jan-23 @ 01:00 UTC
(in 8 hours)
Expired Click to View Jan-22 @ 13:00 to Jan-22 @ 16:00
TAF CYZH 221238Z 2213/2301 VRB03KT P6SM FEW060 SCT120 OVC200
Wind Visibility Clouds
Variable at 3 knots Greater than 6 miles
  • Few at 6,000' AGL
  • Scattered at 12,000' AGL
  • Overcast at 20,000' AGL
From Jan-22 @ 16:00 to Jan-22 @ 21:00
FM221600 26005KT P6SM -SN BKN060 OVC120
Wind Visibility Clouds Conditions
260° at 5 knots Greater than 6 miles
  • Broken at 6,000' AGL
  • Overcast at 12,000' AGL
  • Light Snow
Temporary Jan-22 @ 16:00 to Jan-23 @ 01:00
TEMPO 2216/2301 21/2SM -SHSN SCT020 OVC040
Visibility Clouds Conditions
2 1/2 miles
  • Scattered at 2,000' AGL
  • Overcast at 4,000' AGL
  • Light Snow
Becoming Jan-22 @ 21:00 to Jan-23 @ 01:00
BECMG 2221/2223 28012G22KT RMK FCST BASED ON AUTO OBS. NXT FCST BY 221900Z
Wind Visibility Clouds Conditions
280° at 12 knots
 Gusting to 22 knots
Greater than 6 miles
  • Broken at 6,000' AGL
  • Overcast at 12,000' AGL
  • Light Snow
TAF CYZH 221238Z 2213/2301 VRB03KT P6SM FEW060 SCT120 OVC200 FM221600 26005KT P6SM -SN BKN060 OVC120 TEMPO 2216/2301 21/2SM -SHSN SCT020 OVC040 BECMG 2221/2223 28012G22KT RMK FCST BASED ON AUTO OBS. NXT FCST BY 221900Z
Issued Jan-22 @ 12:38 UTC
(4 hours ago)
Valid From Jan-22 @ 13:00 UTC
(4 hours ago)
Valid To Jan-23 @ 01:00 UTC
(in 8 hours)
Jan-22 @ 13:00 - Jan-22 @ 16:00
Wind Visibility
Variable at 3 knots Greater than 6 miles
Clouds
  • Few at 6,000' AGL
  • Scattered at 12,000' AGL
  • Overcast at 20,000' AGL
From Jan-22 @ 16:00 - Jan-22 @ 21:00
Wind Visibility
260° at 5 knots Greater than 6 miles
Clouds
  • Broken at 6,000' AGL
  • Overcast at 12,000' AGL
Conditions
  • Light Snow
Temporary Jan-22 @ 16:00 - Jan-23 @ 01:00
Clouds
  • Scattered at 2,000' AGL
  • Overcast at 4,000' AGL
Conditions
  • Light Snow
Becoming Jan-22 @ 21:00 - Jan-23 @ 01:00
Wind Visibility
280° at 12 knots
 Gusting to 22 knots
Greater than 6 miles
Clouds
  • Broken at 6,000' AGL
  • Overcast at 12,000' AGL
Conditions
  • Light Snow